Time;durP1;ratioP1;P1;durP2;ratioP2;P2;SDS_P1;SDS_P2;PMS_P1;PMS_P2;Temp;Humidity;BMP_temperature;BMP_pressure;BME280_temperature;BME280_humidity;BME280_pressure;Samples;Min_cycle;Max_cycle;Signal;HPM_P1;HPM_P2
2021/08/07 00:07:55;;;;;;;2.35;1.00;;;21.20;65.20;;;;;;21076323;28;20527;-20
2021/08/07 00:17:55;;;;;;;1.15;0.80;;;21.20;65.20;;;;;;21075631;28;20134;-20
2021/08/07 00:27:56;;;;;;;1.58;1.00;;;21.20;65.20;;;;;;21091702;28;20039;-20
2021/08/07 00:37:56;;;;;;;1.42;0.90;;;21.20;65.10;;;;;;21105447;28;20032;-19
2021/08/07 00:47:57;;;;;;;1.20;0.95;;;21.20;65.20;;;;;;21104448;28;20048;-19
2021/08/07 00:57:58;;;;;;;1.08;0.77;;;21.20;65.10;;;;;;21096285;28;20621;-20
2021/08/07 01:08:18;;;;;;;1.50;0.90;;;21.20;65.10;;;;;;21074106;28;20051;-20
2021/08/07 01:18:21;;;;;;;1.25;0.93;;;21.20;65.10;;;;;;21071588;28;20028;-20
2021/08/07 01:28:25;;;;;;;1.27;0.77;;;21.20;65.10;;;;;;21070638;28;20066;-19
2021/08/07 01:38:25;;;;;;;1.67;0.80;;;21.20;65.10;;;;;;21070115;28;20036;-19
2021/08/07 01:48:37;;;;;;;1.38;0.82;;;21.10;65.00;;;;;;21068223;28;20067;-18
2021/08/07 01:59:05;;;;;;;1.88;0.75;;;21.20;65.10;;;;;;21067502;28;20131;-20
2021/08/07 02:09:05;;;;;;;1.77;0.90;;;21.20;65.10;;;;;;21062771;28;20078;-19
2021/08/07 02:19:07;;;;;;;1.45;0.90;;;21.20;65.00;;;;;;21083707;28;20048;-19
2021/08/07 02:29:08;;;;;;;1.55;0.98;;;21.20;65.00;;;;;;21082736;28;20036;-20
2021/08/07 02:39:09;;;;;;;1.13;0.70;;;21.20;65.00;;;;;;21081917;28;20108;-19
2021/08/07 02:49:10;;;;;;;1.15;0.73;;;21.20;65.00;;;;;;21081885;28;20040;-20
2021/08/07 02:59:11;;;;;;;0.98;0.68;;;21.20;65.00;;;;;;21080470;28;20106;-20
2021/08/07 03:09:12;;;;;;;1.30;0.70;;;21.10;64.90;;;;;;21080771;28;20028;-20
2021/08/07 03:19:12;;;;;;;1.45;0.88;;;21.10;64.90;;;;;;21085062;28;20046;-20
2021/08/07 03:29:13;;;;;;;1.00;0.70;;;21.10;64.90;;;;;;21109033;28;20043;-20
2021/08/07 03:39:14;;;;;;;0.73;0.50;;;21.10;65.40;;;;;;21079136;28;20048;-20
2021/08/07 03:49:15;;;;;;;0.90;0.70;;;21.10;64.90;;;;;;21078530;28;20488;-19
2021/08/07 03:59:16;;;;;;;1.60;0.90;;;21.10;64.80;;;;;;21076911;28;20043;-19
2021/08/07 04:09:16;;;;;;;1.33;0.95;;;21.10;64.90;;;;;;21076266;28;20032;-19
2021/08/07 04:19:17;;;;;;;1.27;0.85;;;21.10;64.80;;;;;;21075238;28;20032;-20
2021/08/07 04:29:17;;;;;;;1.17;0.70;;;21.10;64.80;;;;;;21075295;28;20086;-20
2021/08/07 04:39:18;;;;;;;1.98;0.70;;;21.10;64.80;;;;;;21080620;28;20111;-20
2021/08/07 04:49:19;;;;;;;0.70;0.50;;;21.10;64.80;;;;;;21084796;28;20032;-19
2021/08/07 04:59:19;;;;;;;1.17;0.75;;;21.10;64.80;;;;;;21102662;22;20055;-21
2021/08/07 05:09:20;;;;;;;0.95;0.65;;;21.10;64.80;;;;;;21070499;28;20048;-21
2021/08/07 05:19:20;;;;;;;0.80;0.55;;;21.10;64.80;;;;;;21069385;28;20128;-21
2021/08/07 05:29:21;;;;;;;1.35;0.90;;;21.10;64.70;;;;;;21068581;28;20103;-21
2021/08/07 05:39:21;;;;;;;0.93;0.65;;;21.10;64.70;;;;;;21067560;28;20043;-21
2021/08/07 05:49:22;;;;;;;0.80;0.55;;;21.10;64.70;;;;;;21079160;28;20097;-21
2021/08/07 05:59:22;;;;;;;1.00;0.60;;;21.10;64.70;;;;;;21085194;28;20036;-21
2021/08/07 06:09:24;;;;;;;1.33;0.70;;;21.20;64.70;;;;;;21082556;28;20060;-21
2021/08/07 06:19:25;;;;;;;1.08;0.70;;;21.10;64.60;;;;;;21083386;28;20043;-21
2021/08/07 06:29:25;;;;;;;1.95;0.70;;;21.10;64.60;;;;;;21082659;28;20040;-19
2021/08/07 06:39:26;;;;;;;1.35;0.70;;;21.10;64.60;;;;;;21084914;28;20032;-19
2021/08/07 06:49:26;;;;;;;0.82;0.47;;;21.10;64.60;;;;;;21083735;28;20060;-19
2021/08/07 06:59:27;;;;;;;0.60;0.45;;;21.10;64.60;;;;;;21080899;28;20043;-21
2021/08/07 07:09:27;;;;;;;1.27;0.80;;;21.10;64.60;;;;;;21079314;28;20380;-21
2021/08/07 07:19:30;;;;;;;1.30;0.80;;;21.10;64.60;;;;;;21078298;28;20059;-21
2021/08/07 07:29:30;;;;;;;2.13;0.88;;;21.10;64.60;;;;;;21077641;28;20416;-21
2021/08/07 07:39:31;;;;;;;0.93;0.43;;;21.10;64.60;;;;;;21077194;28;20180;-21
2021/08/07 07:49:31;;;;;;;0.88;0.60;;;21.10;64.50;;;;;;21076454;28;20060;-21
2021/08/07 07:59:32;;;;;;;1.33;0.47;;;21.20;64.60;;;;;;21075438;28;20044;-20
2021/08/07 08:09:32;;;;;;;0.98;0.63;;;21.10;64.50;;;;;;21076563;28;20040;-19
2021/08/07 08:19:33;;;;;;;1.00;0.70;;;21.20;64.60;;;;;;21074647;28;20115;-21
2021/08/07 08:29:34;;;;;;;0.32;0.30;;;21.20;64.50;;;;;;21073001;28;20504;-20
2021/08/07 08:39:35;;;;;;;2.15;0.50;;;21.20;64.50;;;;;;21073039;28;20103;-20
2021/08/07 08:49:36;;;;;;;0.88;0.50;;;21.10;64.30;;;;;;21071947;28;20040;-21
2021/08/07 08:59:37;;;;;;;1.20;0.57;;;21.20;64.40;;;;;;21069369;28;20091;-20
2021/08/07 09:09:38;;;;;;;0.70;0.70;;;21.20;64.30;;;;;;21070526;28;20032;-20
2021/08/07 09:19:39;;;;;;;0.85;0.40;;;21.20;64.30;;;;;;21070260;28;20032;-20
2021/08/07 09:29:39;;;;;;;2.45;0.65;;;21.20;64.30;;;;;;21071537;28;20043;-21
2021/08/07 09:39:42;;;;;;;0.75;0.40;;;21.20;64.30;;;;;;21071506;28;20044;-20
2021/08/07 09:49:45;;;;;;;1.05;0.50;;;21.20;64.30;;;;;;21068725;28;20043;-21
2021/08/07 09:59:50;;;;;;;1.08;0.60;;;21.20;64.80;;;;;;21067188;28;20412;-21
2021/08/07 10:09:50;;;;;;;0.88;0.50;;;21.20;64.30;;;;;;21067853;28;20301;-21
2021/08/07 10:19:52;;;;;;;0.70;0.50;;;21.10;64.30;;;;;;21067432;28;20036;-22
2021/08/07 10:29:53;;;;;;;0.93;0.50;;;21.20;64.30;;;;;;21067753;28;20031;-22
2021/08/07 10:39:53;;;;;;;0.63;0.40;;;21.20;64.40;;;;;;21082037;28;20500;-21
2021/08/07 10:49:54;;;;;;;1.07;0.43;;;21.20;64.50;;;;;;21081517;28;20404;-21
2021/08/07 10:59:54;;;;;;;0.68;0.50;;;21.20;64.40;;;;;;21080137;28;20527;-20
2021/08/07 11:10:29;;;;;;;1.10;0.57;;;21.20;64.50;;;;;;21080303;28;20430;-20
2021/08/07 11:20:39;;;;;;;1.75;0.38;;;21.20;64.40;;;;;;21077884;28;20040;-20
2021/08/07 11:30:40;;;;;;;0.73;0.40;;;21.30;64.50;;;;;;21077282;28;20500;-21
2021/08/07 11:41:02;;;;;;;0.95;0.50;;;21.30;64.30;;;;;;21076870;28;20113;-21
2021/08/07 11:51:11;;;;;;;0.65;0.30;;;21.30;64.30;;;;;;21075449;28;20035;-21
2021/08/07 12:01:13;;;;;;;0.90;0.60;;;21.30;64.30;;;;;;21075065;28;20040;-20
2021/08/07 12:11:16;;;;;;;0.88;0.50;;;21.40;64.30;;;;;;21075022;28;20036;-20
2021/08/07 12:21:22;;;;;;;0.85;0.50;;;21.30;64.20;;;;;;21078215;28;20020;-20
2021/08/07 12:31:23;;;;;;;0.93;0.50;;;21.40;64.20;;;;;;21080948;28;20483;-21
2021/08/07 12:41:23;;;;;;;0.82;0.52;;;21.40;64.30;;;;;;21083896;28;20107;-19
2021/08/07 12:51:30;;;;;;;1.33;0.60;;;21.40;64.20;;;;;;21084397;28;20031;-21
2021/08/07 13:01:33;;;;;;;2.22;0.60;;;21.40;64.30;;;;;;21074654;28;20043;-19
2021/08/07 13:11:34;;;;;;;0.88;0.57;;;21.40;64.20;;;;;;21071001;28;20043;-20
2021/08/07 13:21:34;;;;;;;0.77;0.50;;;21.40;64.30;;;;;;21073827;28;20028;-21
2021/08/07 13:31:35;;;;;;;0.82;0.50;;;21.40;64.30;;;;;;21069969;28;20040;-21
2021/08/07 13:41:40;;;;;;;1.17;0.70;;;21.40;64.30;;;;;;21068971;28;20305;-20
2021/08/07 13:51:41;;;;;;;1.02;0.70;;;21.40;64.30;;;;;;21069084;28;20040;-18
2021/08/07 14:01:41;;;;;;;0.90;0.50;;;21.40;64.20;;;;;;21068108;28;20040;-19
2021/08/07 14:11:42;;;;;;;0.73;0.50;;;21.40;64.30;;;;;;21080196;28;20028;-20
2021/08/07 14:21:43;;;;;;;1.67;0.52;;;21.40;64.30;;;;;;21084661;28;20048;-20
2021/08/07 14:31:45;;;;;;;1.67;0.68;;;21.40;64.30;;;;;;21083201;28;20488;-21
2021/08/07 14:41:46;;;;;;;1.00;0.68;;;21.40;64.20;;;;;;21083277;28;20047;-21
2021/08/07 14:51:48;;;;;;;0.70;0.40;;;21.40;64.30;;;;;;21081692;28;20379;-19
2021/08/07 15:01:48;;;;;;;1.25;0.47;;;21.40;64.30;;;;;;21080524;28;20465;-20
2021/08/07 15:11:49;;;;;;;1.23;0.60;;;21.40;64.20;;;;;;21079933;28;20032;-21
2021/08/07 15:21:49;;;;;;;0.57;0.40;;;21.50;64.20;;;;;;21079144;28;20123;-21
2021/08/07 15:31:50;;;;;;;1.38;0.73;;;21.40;64.20;;;;;;21078160;28;20799;-21
2021/08/07 15:41:51;;;;;;;0.98;0.50;;;21.40;64.20;;;;;;21077572;28;20040;-21
2021/08/07 15:51:51;;;;;;;1.42;0.88;;;21.40;64.20;;;;;;21076765;28;20400;-21
2021/08/07 16:01:52;;;;;;;0.82;0.47;;;21.40;64.10;;;;;;21076339;28;20039;-21
2021/08/07 16:11:52;;;;;;;0.70;0.50;;;21.40;64.20;;;;;;21076762;28;20503;-21
2021/08/07 16:21:53;;;;;;;1.17;0.50;;;21.40;64.10;;;;;;21076434;28;20195;-21
2021/08/07 16:31:54;;;;;;;0.50;0.43;;;21.40;64.00;;;;;;21083941;28;20032;-21
2021/08/07 16:41:55;;;;;;;1.35;0.50;;;21.40;64.00;;;;;;21074094;28;20496;-21
2021/08/07 16:51:55;;;;;;;3.10;0.85;;;21.40;64.00;;;;;;21073728;28;20036;-22
2021/08/07 17:01:56;;;;;;;1.38;0.63;;;21.40;63.90;;;;;;21058203;22;20052;-20
2021/08/07 17:11:59;;;;;;;1.10;0.60;;;21.40;63.90;;;;;;20989541;28;20036;-20
2021/08/07 17:21:59;;;;;;;1.80;0.80;;;21.40;63.90;;;;;;20988139;28;20094;-20
2021/08/07 17:32:00;;;;;;;0.93;0.60;;;21.30;63.80;;;;;;20988415;28;20377;-19
2021/08/07 17:42:02;;;;;;;1.58;0.90;;;21.40;63.80;;;;;;20997402;28;20044;-20
2021/08/07 17:52:03;;;;;;;1.60;0.55;;;21.30;63.80;;;;;;20986293;28;20115;-20
2021/08/07 18:02:03;;;;;;;1.17;0.63;;;21.30;63.80;;;;;;20986849;28;20618;-19
2021/08/07 18:12:04;;;;;;;0.68;0.40;;;21.40;63.90;;;;;;21000788;28;20033;-19
2021/08/07 18:22:04;;;;;;;1.25;0.80;;;21.40;63.90;;;;;;20985970;28;20036;-20
2021/08/07 18:32:07;;;;;;;1.35;0.65;;;21.40;63.90;;;;;;20983999;28;20065;-20
2021/08/07 18:42:08;;;;;;;1.55;0.70;;;21.40;63.90;;;;;;20984743;28;20108;-19
2021/08/07 18:52:09;;;;;;;0.82;0.50;;;21.30;63.90;;;;;;20988244;28;20076;-20
2021/08/07 19:02:10;;;;;;;1.45;0.63;;;21.30;63.80;;;;;;20999566;28;20162;-19
2021/08/07 19:12:10;;;;;;;1.10;0.73;;;21.30;63.80;;;;;;20998124;28;20488;-19
2021/08/07 19:22:11;;;;;;;1.30;0.60;;;21.30;64.40;;;;;;20996771;28;20484;-19
2021/08/07 19:32:11;;;;;;;0.90;0.50;;;21.30;63.80;;;;;;20995971;28;20472;-20
2021/08/07 19:42:12;;;;;;;1.40;0.63;;;21.30;63.80;;;;;;20995339;28;20128;-20
2021/08/07 19:52:13;;;;;;;0.80;0.60;;;21.30;63.80;;;;;;20994448;28;20043;-20
2021/08/07 20:02:13;;;;;;;1.73;0.80;;;21.30;63.80;;;;;;20992707;28;20215;-20
2021/08/07 20:12:14;;;;;;;1.33;0.60;;;21.40;63.80;;;;;;20992650;28;20036;-20
2021/08/07 20:22:15;;;;;;;1.38;0.70;;;21.30;63.80;;;;;;20991955;28;20068;-20
2021/08/07 20:32:16;;;;;;;0.98;0.68;;;21.30;63.80;;;;;;20990586;28;20040;-20
2021/08/07 20:42:16;;;;;;;0.63;0.45;;;21.30;63.80;;;;;;20989463;28;20088;-19
2021/08/07 20:52:17;;;;;;;1.10;0.50;;;21.30;63.80;;;;;;20989006;28;20028;-21
2021/08/07 21:02:18;;;;;;;1.10;0.53;;;21.30;63.80;;;;;;20991352;28;20067;-19
2021/08/07 21:12:18;;;;;;;1.48;0.60;;;21.30;63.80;;;;;;20993230;28;20489;-20
2021/08/07 21:22:19;;;;;;;1.58;0.80;;;21.30;63.80;;;;;;20995385;28;20032;-20
2021/08/07 21:32:20;;;;;;;0.82;0.50;;;21.30;63.80;;;;;;20988447;28;20075;-20
2021/08/07 21:42:22;;;;;;;0.85;0.47;;;21.30;63.80;;;;;;20986347;28;20037;-20
2021/08/07 21:52:24;;;;;;;1.13;0.60;;;21.30;63.80;;;;;;20987391;28;20028;-19
2021/08/07 22:02:25;;;;;;;1.10;0.50;;;21.30;63.80;;;;;;20986512;28;20099;-20
2021/08/07 22:12:25;;;;;;;1.85;0.70;;;21.20;63.80;;;;;;20988297;28;20032;-20
2021/08/07 22:22:26;;;;;;;1.08;0.63;;;21.20;63.80;;;;;;20984919;28;20041;-20
2021/08/07 22:32:26;;;;;;;1.75;0.60;;;21.20;63.80;;;;;;20996356;28;20092;-20
2021/08/07 22:42:28;;;;;;;2.30;0.60;;;21.20;63.80;;;;;;21001400;28;20111;-20
2021/08/07 22:52:28;;;;;;;0.68;0.40;;;21.20;63.80;;;;;;20999080;28;20450;-19
2021/08/07 23:02:29;;;;;;;1.35;0.60;;;21.20;63.80;;;;;;21080792;22;20048;-20
2021/08/07 23:12:29;;;;;;;1.40;0.50;;;21.20;63.80;;;;;;21090502;28;20127;-20
2021/08/07 23:22:30;;;;;;;1.03;0.50;;;21.20;63.80;;;;;;21078204;28;20067;-20
2021/08/07 23:32:30;;;;;;;1.73;0.80;;;21.20;63.80;;;;;;21078530;28;20395;-20
2021/08/07 23:42:31;;;;;;;0.75;0.40;;;21.20;63.80;;;;;;21081739;28;20067;-20
2021/08/07 23:52:31;;;;;;;1.55;0.60;;;21.20;63.90;;;;;;21076051;28;20040;-21
